Time;durP1;ratioP1;P1;durP2;ratioP2;P2;SDS_P1;SDS_P2;PMS_P1;PMS_P2;Temp;Humidity;BMP_temperature;BMP_pressure;BME280_temperature;BME280_humidity;BME280_pressure;Samples;Min_cycle;Max_cycle;Signal;HPM_P1;HPM_P2
2023/01/14 00:00:51;;;;;;;;;;;;;;;25.57;42.88;94743.06;5051466;28;7285;-72
2023/01/14 00:03:34;;;;;;;;;;;;;;;25.58;43.24;94750.06;5040813;28;7916;-72
2023/01/14 00:06:01;;;;;;;;;;;;;;;25.58;43.20;94750.06;5055238;28;8999;-72
2023/01/14 00:08:32;;;;;;;;;;;;;;;25.55;43.61;94748.31;5064490;28;7274;-72
2023/01/14 00:11:04;;;;;;;;;;;;;;;25.53;43.52;94745.31;5048524;28;9470;-72
2023/01/14 00:13:37;;;;;;;;;;;;;;;25.50;43.40;94749.06;5044413;28;9431;-71
2023/01/14 00:16:06;;;;;;;;;;;;;;;25.51;43.09;94738.81;5038860;28;7072;-72
2023/01/14 00:18:36;;;;;;;;;;;;;;;25.50;43.67;94742.81;5047218;28;7016;-72
2023/01/14 00:21:09;;;;;;;;;;;;;;;25.52;43.62;94745.81;5062063;28;8172;-72
2023/01/14 00:23:38;;;;;;;;;;;;;;;25.52;42.93;94745.81;5042585;28;7064;-72
2023/01/14 00:26:15;;;;;;;;;;;;;;;25.52;43.07;94745.81;5050109;28;7302;-72
2023/01/14 00:28:50;;;;;;;;;;;;;;;25.53;42.57;94756.34;5046199;28;8186;-70
2023/01/14 00:31:19;;;;;;;;;;;;;;;25.55;43.78;94751.06;5043263;28;7072;-72
2023/01/14 00:33:50;;;;;;;;;;;;;;;25.57;42.66;94751.31;5040279;28;7357;-72
2023/01/14 00:36:21;;;;;;;;;;;;;;;25.56;42.78;94738.78;5046148;28;9368;-72
2023/01/14 00:38:49;;;;;;;;;;;;;;;25.57;43.09;94748.56;5048240;28;7128;-72
2023/01/14 00:41:21;;;;;;;;;;;;;;;25.55;43.61;94742.06;5046929;28;7308;-72
2023/01/14 00:43:54;;;;;;;;;;;;;;;25.52;42.80;94743.81;5037836;28;8030;-72
2023/01/14 00:46:25;;;;;;;;;;;;;;;25.52;43.14;94745.81;5037426;28;7023;-72
2023/01/14 00:48:51;;;;;;;;;;;;;;;25.51;43.31;94752.56;5063181;28;9467;-72
2023/01/14 00:51:19;;;;;;;;;;;;;;;25.52;43.71;94749.31;5051012;28;7016;-72
2023/01/14 00:53:49;;;;;;;;;;;;;;;25.51;42.85;94744.31;5050091;28;7636;-72
2023/01/14 00:56:33;;;;;;;;;;;;;;;25.48;43.13;94740.56;5046509;28;7046;-72
2023/01/14 00:58:59;;;;;;;;;;;;;;;25.51;43.48;94745.06;5054703;28;9737;-72
2023/01/14 01:01:44;;;;;;;;;;;;;;;25.50;43.24;94751.06;5044009;28;9409;-72
2023/01/14 01:04:13;;;;;;;;;;;;;;;25.50;42.89;94749.06;5053849;28;7233;-72
2023/01/14 01:06:56;;;;;;;;;;;;;;;25.53;43.22;94753.59;5061567;28;9251;-72
2023/01/14 01:09:27;;;;;;;;;;;;;;;25.51;42.70;94758.84;5060396;28;7296;-72
2023/01/14 01:11:55;;;;;;;;;;;;;;;25.52;42.75;94767.84;5052781;28;9050;-72
2023/01/14 01:14:24;;;;;;;;;;;;;;;25.54;43.44;94754.31;5045913;28;7171;-72
2023/01/14 01:16:50;;;;;;;;;;;;;;;25.54;43.17;94754.31;5054961;28;9119;-72
2023/01/14 01:19:50;;;;;;;;;;;;;;;25.51;42.98;94761.59;5066239;28;9470;-72
2023/01/14 01:22:28;;;;;;;;;;;;;;;25.49;42.63;94758.56;4974649;28;7937;-73
2023/01/14 01:25:03;;;;;;;;;;;;;;;25.50;43.22;94764.84;4975666;28;8789;-73
2023/01/14 01:27:31;;;;;;;;;;;;;;;25.51;43.08;94769.09;4969239;28;7339;-73
2023/01/14 01:30:08;;;;;;;;;;;;;;;25.50;43.26;94770.34;4975249;28;9404;-73
2023/01/14 01:32:39;;;;;;;;;;;;;;;25.50;43.49;94767.59;4996762;28;7089;-73
2023/01/14 01:35:19;;;;;;;;;;;;;;;25.49;43.51;94772.34;4976349;28;7361;-73
2023/01/14 01:37:51;;;;;;;;;;;;;;;25.50;42.76;94767.59;4991443;28;7034;-73
2023/01/14 01:40:28;;;;;;;;;;;;;;;25.50;42.95;94768.34;4975245;28;9779;-73
2023/01/14 01:43:08;;;;;;;;;;;;;;;25.47;43.04;94777.59;4991183;28;7523;-73
2023/01/14 01:45:56;;;;;;;;;;;;;;;25.48;43.03;94767.34;4982357;28;8352;-73
2023/01/14 01:48:28;;;;;;;;;;;;;;;25.48;43.76;94764.59;4974268;28;7686;-73
2023/01/14 01:51:20;;;;;;;;;;;;;;;25.47;42.86;94761.06;4980848;28;7034;-73
2023/01/14 01:53:51;;;;;;;;;;;;;;;25.47;43.28;94755.56;4990419;28;7274;-73
2023/01/14 01:56:34;;;;;;;;;;;;;;;25.48;43.20;94756.31;4990573;28;7599;-72
2023/01/14 01:59:05;;;;;;;;;;;;;;;25.47;43.69;94761.06;5056915;28;7068;-72
2023/01/14 02:01:40;;;;;;;;;;;;;;;25.46;42.83;94759.59;5041176;28;7429;-72
2023/01/14 02:04:08;;;;;;;;;;;;;;;25.46;42.99;94759.59;5048524;28;9011;-73
2023/01/14 02:06:50;;;;;;;;;;;;;;;25.44;43.07;94762.09;5042851;28;8616;-73
2023/01/14 02:10:04;;;;;;;;;;;;;;;25.46;43.76;94761.59;5041294;28;9026;-72
2023/01/14 02:12:52;;;;;;;;;;;;;;;25.44;42.87;94762.09;4946599;28;7467;-73
2023/01/14 02:15:49;;;;;;;;;;;;;;;25.41;42.73;94766.56;4951657;28;8779;-73
2023/01/14 02:19:10;;;;;;;;;;;;;;;25.44;42.87;94773.09;4936331;28;9533;-72
2023/01/14 02:21:59;;;;;;;;;;;;;;;25.44;43.57;94764.84;4917488;29;7250;-72
2023/01/14 02:25:06;;;;;;;;;;;;;;;25.46;43.65;94756.84;4898411;29;7641;-73
2023/01/14 02:28:09;;;;;;;;;;;;;;;25.48;42.87;94762.59;4910119;29;7300;-72
2023/01/14 02:30:57;;;;;;;;;;;;;;;25.46;43.35;94759.59;4898471;29;7015;-72
2023/01/14 02:33:49;;;;;;;;;;;;;;;25.44;42.95;94756.59;4895789;29;9932;-72
2023/01/14 02:36:36;;;;;;;;;;;;;;;25.43;43.20;94749.56;4917032;29;9385;-73
2023/01/14 02:39:35;;;;;;;;;;;;;;;25.42;43.49;94748.06;4908038;29;7240;-72
2023/01/14 02:45:42;;;;;;;;;;;;;;;25.45;43.34;94743.56;4883289;29;7486;-73
2023/01/14 02:48:12;;;;;;;;;;;;;;;25.45;42.92;94752.56;4878125;28;7355;-72
2023/01/14 02:50:40;;;;;;;;;;;;;;;25.45;43.04;94752.56;4970064;28;7323;-73
2023/01/14 02:53:14;;;;;;;;;;;;;;;25.46;43.52;94751.31;4969553;28;9195;-72
2023/01/14 02:55:40;;;;;;;;;;;;;;;25.42;43.76;94748.06;4948239;28;7272;-72
2023/01/14 02:58:24;;;;;;;;;;;;;;;25.43;43.12;94749.56;4933461;28;8996;-73
2023/01/14 03:01:00;;;;;;;;;;;;;;;25.43;42.79;94746.81;4947537;28;9309;-72
2023/01/14 03:04:11;;;;;;;;;;;;;;;25.42;43.80;94742.56;4964101;28;7022;-72
2023/01/14 03:07:04;;;;;;;;;;;;;;;25.43;43.03;94738.53;4949521;28;7212;-72
2023/01/14 03:09:51;;;;;;;;;;;;;;;25.45;43.74;94738.78;4965085;28;9458;-72
2023/01/14 03:12:33;;;;;;;;;;;;;;;25.46;42.94;94742.31;4955602;28;7047;-73
2023/01/14 03:15:09;;;;;;;;;;;;;;;25.45;43.23;94738.78;4949766;28;7271;-72
2023/01/14 03:18:02;;;;;;;;;;;;;;;25.46;43.69;94731.28;4938776;28;8459;-72
2023/01/14 03:20:36;;;;;;;;;;;;;;;25.47;43.68;94727.28;5002892;28;7253;-71
2023/01/14 03:23:12;;;;;;;;;;;;;;;25.45;42.86;94729.81;5061895;28;7005;-73
2023/01/14 03:25:46;;;;;;;;;;;;;;;25.45;43.46;94725.03;5035037;28;7280;-72
2023/01/14 03:28:19;;;;;;;;;;;;;;;25.43;43.28;94711.00;5055721;28;7289;-71
2023/01/14 03:30:57;;;;;;;;;;;;;;;25.43;43.63;94719.28;5049926;28;7151;-72
2023/01/14 03:33:40;;;;;;;;;;;;;;;25.46;43.01;94712.78;5038034;28;7048;-72
2023/01/14 03:36:07;;;;;;;;;;;;;;;25.45;43.23;94727.06;5044133;28;7286;-72
2023/01/14 03:38:41;;;;;;;;;;;;;;;25.44;43.03;94715.28;5055348;28;9222;-72
2023/01/14 03:42:17;;;;;;;;;;;;;;;25.43;42.91;94717.28;5053738;28;8697;-72
2023/01/14 03:44:23;;;;;;;;;;;;;;;25.38;43.58;94709.00;5058932;28;7234;-72
2023/01/14 03:46:50;;;;;;;;;;;;;;;25.42;43.69;94706.78;5045500;28;7290;-72
2023/01/14 03:49:18;;;;;;;;;;;;;;;25.41;43.31;94702.47;5045691;28;7977;-72
2023/01/14 03:51:59;;;;;;;;;;;;;;;25.37;43.06;94697.22;5049047;28;7171;-72
2023/01/14 03:54:44;;;;;;;;;;;;;;;25.39;42.78;94699.47;5044164;28;9115;-71
2023/01/14 03:57:43;;;;;;;;;;;;;;;25.42;42.80;94696.47;5064283;28;7271;-72
2023/01/14 04:00:26;;;;;;;;;;;;;;;25.43;43.11;94691.72;5043869;28;7197;-72
2023/01/14 04:02:57;;;;;;;;;;;;;;;25.40;42.89;94696.22;5049528;28;8807;-72
2023/01/14 04:05:24;;;;;;;;;;;;;;;25.41;43.49;94696.97;5043354;28;7340;-72
2023/01/14 04:07:57;;;;;;;;;;;;;;;25.46;43.60;94693.50;5042951;28;9173;-73
2023/01/14 04:10:23;;;;;;;;;;;;;;;25.47;43.75;94686.00;5038534;28;9554;-71
2023/01/14 04:15:33;;;;;;;;;;;;;;;25.46;43.44;94679.72;5062693;28;7289;-72
2023/01/14 04:17:59;;;;;;;;;;;;;;;25.46;42.86;94681.72;5050173;28;7229;-72
2023/01/14 04:20:28;;;;;;;;;;;;;;;25.50;42.57;94682.22;5043422;28;7153;-72
2023/01/14 04:22:55;;;;;;;;;;;;;;;25.48;42.68;94682.72;5060464;28;9040;-72
2023/01/14 04:25:21;;;;;;;;;;;;;;;25.44;43.13;94671.22;5039668;28;9059;-72
2023/01/14 04:27:48;;;;;;;;;;;;;;;25.43;43.27;94673.22;5049706;28;7484;-72
2023/01/14 04:30:16;;;;;;;;;;;;;;;25.43;43.15;94673.22;5058358;28;7101;-72
2023/01/14 04:32:44;;;;;;;;;;;;;;;25.43;42.86;94672.47;5054785;28;9122;-72
2023/01/14 04:35:13;;;;;;;;;;;;;;;25.42;43.53;94670.97;5034619;28;7018;-72
2023/01/14 04:37:39;;;;;;;;;;;;;;;25.41;43.22;94669.44;5036808;28;8784;-72
2023/01/14 04:40:06;;;;;;;;;;;;;;;25.39;42.91;94655.41;5050101;28;7442;-72
2023/01/14 04:42:35;;;;;;;;;;;;;;;25.38;43.62;94651.91;5041496;28;7049;-72
2023/01/14 04:45:21;;;;;;;;;;;;;;;25.42;43.67;94659.97;5065730;28;7026;-72
2023/01/14 04:47:52;;;;;;;;;;;;;;;25.39;43.17;94660.91;5047651;28;7192;-72
2023/01/14 04:50:33;;;;;;;;;;;;;;;25.39;43.40;94656.16;5040763;28;7105;-72
2023/01/14 04:53:04;;;;;;;;;;;;;;;25.38;43.35;94654.66;5042570;28;7490;-72
2023/01/14 04:55:32;;;;;;;;;;;;;;;25.36;42.88;94648.91;5037668;28;7041;-72
2023/01/14 04:58:00;;;;;;;;;;;;;;;25.37;43.34;94647.66;5036747;28;9080;-72
2023/01/14 05:00:27;;;;;;;;;;;;;;;25.41;42.95;94645.41;5035886;28;8221;-72
2023/01/14 05:03:04;;;;;;;;;;;;;;;25.39;43.38;94645.16;5036607;28;7105;-72
2023/01/14 05:05:32;;;;;;;;;;;;;;;25.42;43.65;94640.69;5044380;28;7270;-72
2023/01/14 05:08:00;;;;;;;;;;;;;;;25.42;42.67;94635.19;5038786;28;7041;-72
2023/01/14 05:10:28;;;;;;;;;;;;;;;25.41;42.87;94625.38;5049813;28;7122;-72
2023/01/14 05:12:57;;;;;;;;;;;;;;;25.40;43.65;94623.88;5042563;28;7114;-72
2023/01/14 05:15:37;;;;;;;;;;;;;;;25.38;43.75;94609.88;5053592;28;9461;-72
2023/01/14 05:18:04;;;;;;;;;;;;;;;25.39;43.05;94617.63;5058719;28;7450;-72
2023/01/14 05:20:43;;;;;;;;;;;;;;;25.38;42.78;94610.59;5038751;28;7272;-72
2023/01/14 05:23:16;;;;;;;;;;;;;;;25.38;43.19;94613.34;5042282;28;9392;-72
2023/01/14 05:25:49;;;;;;;;;;;;;;;25.36;43.05;94606.84;5054044;28;7252;-72
2023/01/14 05:28:18;;;;;;;;;;;;;;;25.36;42.88;94606.84;5046504;28;9102;-72
2023/01/14 05:30:47;;;;;;;;;;;;;;;25.37;43.64;94616.63;5041834;28;7089;-72
2023/01/14 05:33:13;;;;;;;;;;;;;;;25.37;42.78;94606.38;5039518;28;7289;-72
2023/01/14 05:35:39;;;;;;;;;;;;;;;25.41;43.72;94609.59;5057145;28;9081;-71
2023/01/14 05:38:16;;;;;;;;;;;;;;;25.41;43.19;94611.59;5053599;28;7489;-72
2023/01/14 05:41:13;;;;;;;;;;;;;;;25.43;43.67;94615.38;5041004;28;9017;-72
2023/01/14 05:46:32;;;;;;;;;;;;;;;25.42;43.44;94611.13;4997651;28;7484;-71
2023/01/14 05:49:00;;;;;;;;;;;;;;;25.40;43.49;94599.09;4990934;28;8724;-71
2023/01/14 05:51:28;;;;;;;;;;;;;;;25.41;43.09;94600.59;4985378;28;7255;-71
2023/01/14 05:53:56;;;;;;;;;;;;;;;25.41;43.45;94597.84;4982023;28;8237;-72
2023/01/14 05:56:33;;;;;;;;;;;;;;;25.42;42.66;94597.34;4985670;28;9066;-72
2023/01/14 05:59:02;;;;;;;;;;;;;;;25.48;43.26;94593.84;4985057;28;9177;-72
2023/01/14 06:07:52;;;;;;;;;;;;;;;25.46;43.45;94593.59;5001259;28;9479;-72
2023/01/14 06:10:18;;;;;;;;;;;;;;;25.45;43.31;94600.38;4985144;28;7423;-72
2023/01/14 06:13:17;;;;;;;;;;;;;;;25.43;43.59;94589.84;5000712;28;7901;-72
2023/01/14 06:16:11;;;;;;;;;;;;;;;25.41;43.74;94589.56;4928011;28;7026;-72
2023/01/14 06:18:47;;;;;;;;;;;;;;;25.38;43.71;94588.56;4940422;28;7421;-72
2023/01/14 06:21:18;;;;;;;;;;;;;;;25.39;43.43;94586.56;4984006;28;7028;-72
2023/01/14 06:23:55;;;;;;;;;;;;;;;25.39;43.08;94572.81;4991599;28;9533;-72
2023/01/14 06:26:39;;;;;;;;;;;;;;;25.39;42.84;94570.81;5010131;28;7643;-72
2023/01/14 06:29:13;;;;;;;;;;;;;;;25.38;43.66;94565.81;4986263;28;8004;-70
2023/01/14 06:31:42;;;;;;;;;;;;;;;25.40;43.64;94546.78;4985823;28;9020;-70
2023/01/14 06:34:08;;;;;;;;;;;;;;;25.44;43.13;94544.53;4985184;28;9067;-71
2023/01/14 06:36:37;;;;;;;;;;;;;;;25.41;43.11;94551.78;4989562;28;9133;-71
2023/01/14 06:39:14;;;;;;;;;;;;;;;25.41;43.70;94557.28;4980320;28;7455;-71
2023/01/14 06:42:10;;;;;;;;;;;;;;;25.39;42.52;94556.28;5008576;28;8205;-71
2023/01/14 06:44:37;;;;;;;;;;;;;;;25.36;43.45;94562.78;4954432;28;6982;-70
2023/01/14 06:47:03;;;;;;;;;;;;;;;25.35;43.50;94545.53;4948432;28;9132;-70
2023/01/14 06:49:32;;;;;;;;;;;;;;;25.34;43.42;94554.28;4960265;28;7425;-70
2023/01/14 06:51:58;;;;;;;;;;;;;;;25.34;42.87;94555.03;4968614;28;9788;-71
2023/01/14 06:55:15;;;;;;;;;;;;;;;25.36;43.66;94551.78;5001648;28;8750;-70
2023/01/14 06:57:56;;;;;;;;;;;;;;;25.36;42.89;94532.50;4988691;28;8876;-71
2023/01/14 07:00:32;;;;;;;;;;;;;;;25.34;43.12;94532.25;4986354;28;9356;-72
2023/01/14 07:02:58;;;;;;;;;;;;;;;25.31;43.30;94528.53;4974481;28;9210;-73
2023/01/14 07:05:27;;;;;;;;;;;;;;;25.35;43.28;94529.03;4965606;28;7019;-73
2023/01/14 07:07:56;;;;;;;;;;;;;;;25.38;43.07;94516.25;4966553;28;9069;-73
2023/01/14 07:10:27;;;;;;;;;;;;;;;25.41;43.23;94504.22;4985944;28;8742;-73
2023/01/14 07:12:53;;;;;;;;;;;;;;;25.40;42.64;94511.72;4971372;28;7030;-72
2023/01/14 07:15:25;;;;;;;;;;;;;;;25.42;42.38;94522.28;4969215;28;7011;-72
2023/01/14 07:17:53;;;;;;;;;;;;;;;25.41;42.83;94520.72;4988943;28;9315;-73
2023/01/14 07:20:24;;;;;;;;;;;;;;;25.45;42.50;94526.75;4995317;28;7745;-73
2023/01/14 07:23:07;;;;;;;;;;;;;;;25.45;42.21;94521.25;5030814;28;7034;-73
2023/01/14 07:25:36;;;;;;;;;;;;;;;25.45;42.39;94515.72;5052023;28;7323;-72
2023/01/14 07:28:04;;;;;;;;;;;;;;;25.41;42.61;94509.72;5044406;28;7222;-71
2023/01/14 07:30:48;;;;;;;;;;;;;;;25.41;42.71;94495.94;5031664;28;9007;-74
2023/01/14 07:33:22;;;;;;;;;;;;;;;25.43;42.07;94494.22;5051245;28;7147;-72
2023/01/14 07:36:01;;;;;;;;;;;;;;;25.45;42.88;94496.47;5062652;28;8971;-73
2023/01/14 07:38:35;;;;;;;;;;;;;;;25.46;41.90;94478.69;5052140;28;8040;-72
2023/01/14 07:41:18;;;;;;;;;;;;;;;25.44;42.36;94478.47;5044291;28;7060;-72
2023/01/14 07:43:47;;;;;;;;;;;;;;;25.46;42.79;94462.16;5063451;28;6965;-72
2023/01/14 07:46:22;;;;;;;;;;;;;;;25.47;42.51;94452.63;5063064;28;7498;-72
2023/01/14 07:48:50;;;;;;;;;;;;;;;25.50;43.02;94448.88;5063717;28;9222;-72
2023/01/14 07:51:20;;;;;;;;;;;;;;;25.53;42.59;94445.13;5064598;28;7469;-72
2023/01/14 07:54:05;;;;;;;;;;;;;;;25.56;42.38;94443.31;5061750;28;9048;-72
2023/01/14 07:56:41;;;;;;;;;;;;;;;25.56;42.88;94446.84;5057996;28;7116;-73
2023/01/14 07:59:19;;;;;;;;;;;;;;;25.55;42.47;94439.84;5047698;28;7234;-73
2023/01/14 08:01:45;;;;;;;;;;;;;;;25.58;42.13;94447.06;5052312;28;7526;-73
2023/01/14 08:04:20;;;;;;;;;;;;;;;25.58;42.37;94455.34;5044496;28;6860;-72
2023/01/14 08:06:46;;;;;;;;;;;;;;;25.56;42.78;94457.84;5062414;28;8843;-73
2023/01/14 08:09:25;;;;;;;;;;;;;;;25.55;43.19;94456.38;5046051;28;8837;-73
2023/01/14 08:11:55;;;;;;;;;;;;;;;25.55;43.13;94458.38;5049838;28;7056;-73
2023/01/14 08:14:22;;;;;;;;;;;;;;;25.54;42.80;94463.13;5054731;28;6961;-73
2023/01/14 08:16:52;;;;;;;;;;;;;;;25.49;42.57;94455.63;5040575;28;9150;-72
2023/01/14 08:19:25;;;;;;;;;;;;;;;25.47;43.45;94447.13;5052564;28;8761;-73
2023/01/14 08:22:21;;;;;;;;;;;;;;;25.48;43.49;94445.88;5058875;28;7713;-73
2023/01/14 08:24:48;;;;;;;;;;;;;;;25.47;42.83;94446.41;5045477;28;7847;-73
2023/01/14 08:27:14;;;;;;;;;;;;;;;25.46;42.54;94444.91;5048903;28;9233;-73
2023/01/14 08:29:40;;;;;;;;;;;;;;;25.47;42.76;94452.63;5065721;28;8701;-72
2023/01/14 08:32:06;;;;;;;;;;;;;;;25.47;43.16;94444.38;5049602;28;7086;-73
2023/01/14 08:34:34;;;;;;;;;;;;;;;25.49;42.85;94441.84;5046763;28;7117;-73
2023/01/14 08:37:02;;;;;;;;;;;;;;;25.53;43.45;94439.63;5043471;28;7168;-72
2023/01/14 08:39:33;;;;;;;;;;;;;;;25.51;43.71;94438.63;5040888;28;7277;-73
2023/01/14 08:41:59;;;;;;;;;;;;;;;25.50;42.93;94426.09;5058721;28;7354;-72
2023/01/14 08:44:27;;;;;;;;;;;;;;;25.49;42.63;94416.34;5051093;28;7658;-72
2023/01/14 08:46:53;;;;;;;;;;;;;;;25.52;43.65;94405.06;5045261;28;7496;-73
2023/01/14 08:49:21;;;;;;;;;;;;;;;25.51;43.15;94409.06;5043752;28;7292;-70
2023/01/14 08:51:50;;;;;;;;;;;;;;;25.51;42.98;94416.59;5049105;28;7008;-70
2023/01/14 08:54:16;;;;;;;;;;;;;;;25.51;43.37;94414.59;5046028;28;7066;-70
2023/01/14 08:56:44;;;;;;;;;;;;;;;25.53;43.20;94420.34;5062058;28;7268;-71
2023/01/14 08:59:19;;;;;;;;;;;;;;;25.50;42.98;94410.31;5044822;28;9113;-71
2023/01/14 09:01:54;;;;;;;;;;;;;;;25.50;43.01;94406.81;5042240;28;8709;-70
2023/01/14 09:04:25;;;;;;;;;;;;;;;25.48;43.87;94404.56;5057966;28;7278;-70
2023/01/14 09:18:30;;;;;;;;;;;;;;;25.52;43.88;94347.22;5059329;28;7662;-70
2023/01/14 09:20:56;;;;;;;;;;;;;;;25.52;43.92;94341.72;4971514;28;8956;-71
2023/01/14 09:23:23;;;;;;;;;;;;;;;25.55;44.42;94359.22;4969686;28;7226;-70
2023/01/14 09:26:02;;;;;;;;;;;;;;;25.57;43.49;94360.22;4984140;28;7740;-70
2023/01/14 09:28:28;;;;;;;;;;;;;;;25.59;43.67;94368.72;4976188;28;7130;-70
2023/01/14 09:30:58;;;;;;;;;;;;;;;25.59;43.71;94382.47;4964026;28;9392;-72
2023/01/14 09:33:27;;;;;;;;;;;;;;;25.62;42.78;94388.97;4963872;28;8951;-72
2023/01/14 09:35:58;;;;;;;;;;;;;;;25.58;43.32;94397.50;4966778;28;7224;-71
2023/01/14 09:38:24;;;;;;;;;;;;;;;25.60;42.84;94411.50;4965900;28;7055;-71
2023/01/14 09:40:52;;;;;;;;;;;;;;;25.61;43.26;94412.25;4964749;28;9008;-72
2023/01/14 09:43:23;;;;;;;;;;;;;;;25.61;43.58;94404.75;4968037;28;7130;-72
2023/01/14 09:46:01;;;;;;;;;;;;;;;25.56;43.70;94389.00;4971560;28;7076;-72
2023/01/14 09:48:31;;;;;;;;;;;;;;;25.57;43.79;94390.50;4962779;28;12215;-73
2023/01/14 09:51:12;;;;;;;;;;;;;;;25.56;43.63;94389.00;4972744;28;9050;-71
2023/01/14 09:54:13;;;;;;;;;;;;;;;25.57;44.08;94376.75;4987715;28;7128;-73
2023/01/14 09:56:50;;;;;;;;;;;;;;;25.55;43.44;94371.00;4910464;28;7037;-73
2023/01/14 09:59:46;;;;;;;;;;;;;;;25.56;43.78;94377.97;4999921;28;7034;-72
2023/01/14 10:02:29;;;;;;;;;;;;;;;25.58;44.67;94375.47;4996406;28;7110;-73
2023/01/14 10:05:33;;;;;;;;;;;;;;;25.59;44.71;94371.47;4997661;28;9095;-72
2023/01/14 10:08:03;;;;;;;;;;;;;;;25.61;44.38;94354.41;5001973;28;8769;-73
2023/01/14 10:14:12;;;;;;;;;;;;;;;25.62;43.61;94331.88;4997730;28;7050;-73
2023/01/14 10:16:43;;;;;;;;;;;;;;;25.64;43.26;94329.38;4996701;28;7318;-73
2023/01/14 10:19:21;;;;;;;;;;;;;;;25.63;43.74;94321.59;5006064;28;7204;-72
2023/01/14 10:22:07;;;;;;;;;;;;;;;25.64;43.56;94315.59;4999966;28;7679;-73
2023/01/14 10:24:33;;;;;;;;;;;;;;;25.64;42.98;94312.84;5002295;28;9181;-73
2023/01/14 10:27:01;;;;;;;;;;;;;;;25.64;43.24;94301.81;5002194;28;8997;-73
2023/01/14 10:29:42;;;;;;;;;;;;;;;25.65;43.24;94295.03;5006275;28;7188;-73
2023/01/14 10:32:13;;;;;;;;;;;;;;;25.65;43.24;94297.78;5024963;28;7287;-73
2023/01/14 10:34:43;;;;;;;;;;;;;;;25.67;43.21;94295.28;5047235;28;7457;-73
2023/01/14 10:37:11;;;;;;;;;;;;;;;25.66;42.81;94293.78;5048635;28;7054;-72
2023/01/14 10:39:52;;;;;;;;;;;;;;;25.67;43.48;94291.78;5049208;28;9380;-73
2023/01/14 10:42:29;;;;;;;;;;;;;;;25.68;43.21;94296.78;5037915;28;9436;-73
2023/01/14 10:44:57;;;;;;;;;;;;;;;25.70;43.28;94299.75;5061946;28;7157;-73
2023/01/14 10:47:24;;;;;;;;;;;;;;;25.69;43.10;94290.00;5052421;28;7449;-73
2023/01/14 10:50:24;;;;;;;;;;;;;;;25.71;42.63;94290.22;5056206;28;7223;-73
2023/01/14 10:52:52;;;;;;;;;;;;;;;25.71;42.62;94284.72;5049008;28;7426;-72
2023/01/14 10:55:30;;;;;;;;;;;;;;;25.75;42.75;94279.66;5066086;28;9195;-73
2023/01/14 10:58:41;;;;;;;;;;;;;;;25.75;42.91;94282.44;5058342;28;7126;-73
2023/01/14 11:01:10;;;;;;;;;;;;;;;25.73;43.24;94289.72;5061228;28;8732;-72
2023/01/14 11:03:42;;;;;;;;;;;;;;;25.72;43.55;94294.50;5039637;28;9136;-73
2023/01/14 11:06:12;;;;;;;;;;;;;;;25.72;43.34;94286.22;5046196;28;7012;-72
2023/01/14 11:08:51;;;;;;;;;;;;;;;25.71;43.41;94276.47;5044512;28;7083;-73
2023/01/14 11:11:22;;;;;;;;;;;;;;;25.72;43.49;94257.94;5060758;28;7365;-74
2023/01/14 11:13:53;;;;;;;;;;;;;;;25.75;42.49;94246.63;5042693;28;7289;-73
2023/01/14 11:16:28;;;;;;;;;;;;;;;25.76;42.78;94225.31;5062853;28;9064;-72
2023/01/14 11:18:59;;;;;;;;;;;;;;;25.73;42.94;94221.59;5042814;28;7202;-73
2023/01/14 11:21:45;;;;;;;;;;;;;;;25.75;42.99;94219.06;5046568;28;8693;-72
2023/01/14 11:24:36;;;;;;;;;;;;;;;25.74;43.41;94228.59;5045398;28;7223;-72
2023/01/14 11:27:06;;;;;;;;;;;;;;;25.72;43.10;94233.88;5046245;28;7297;-73
2023/01/14 11:29:58;;;;;;;;;;;;;;;25.76;43.41;94239.09;5063751;28;9431;-73
2023/01/14 11:32:33;;;;;;;;;;;;;;;25.77;42.83;94238.59;5061541;28;7069;-72
2023/01/14 11:35:22;;;;;;;;;;;;;;;25.78;43.00;94253.84;5048372;28;8854;-72
2023/01/14 11:38:16;;;;;;;;;;;;;;;25.78;43.18;94245.59;5060148;28;7236;-72
2023/01/14 11:44:21;;;;;;;;;;;;;;;25.83;42.75;94222.75;4988544;28;9096;-72
2023/01/14 11:47:26;;;;;;;;;;;;;;;25.87;43.21;94219.72;4968695;28;7051;-72
2023/01/14 11:50:12;;;;;;;;;;;;;;;25.88;42.67;94210.91;4988475;28;8904;-72
2023/01/14 11:52:38;;;;;;;;;;;;;;;25.88;42.90;94212.94;4963010;28;9044;-72
2023/01/14 11:55:16;;;;;;;;;;;;;;;25.86;43.13;94194.16;4979697;28;9610;-72
2023/01/14 11:57:43;;;;;;;;;;;;;;;25.86;42.85;94199.66;4983235;28;8469;-70
2023/01/14 12:00:12;;;;;;;;;;;;;;;25.84;42.91;94187.66;4969123;28;9093;-70
2023/01/14 12:02:57;;;;;;;;;;;;;;;25.80;43.28;94178.94;4977148;28;7292;-70
2023/01/14 12:05:24;;;;;;;;;;;;;;;25.81;42.90;94167.44;4971169;28;7440;-71
2023/01/14 12:08:00;;;;;;;;;;;;;;;25.81;43.75;94161.16;4984421;28;7392;-71
2023/01/14 12:10:34;;;;;;;;;;;;;;;25.80;43.38;94160.41;4980421;28;7378;-71
2023/01/14 12:19:01;;;;;;;;;;;;;;;25.89;43.05;94146.28;5029183;28;7434;-72
2023/01/14 12:21:51;;;;;;;;;;;;;;;25.89;43.51;94123.50;5029901;28;7119;-73
2023/01/14 12:24:30;;;;;;;;;;;;;;;25.91;43.66;94120.97;5033542;28;7639;-72
2023/01/14 12:27:02;;;;;;;;;;;;;;;25.91;43.29;94115.44;5062484;28;7248;-72
2023/01/14 12:29:44;;;;;;;;;;;;;;;25.92;42.99;94116.97;5020443;28;7030;-73
2023/01/14 12:32:25;;;;;;;;;;;;;;;25.91;42.71;94107.19;5030196;28;7089;-72
2023/01/14 12:34:59;;;;;;;;;;;;;;;25.93;42.49;94097.13;5029359;28;7284;-73
2023/01/14 12:37:53;;;;;;;;;;;;;;;25.94;42.57;94101.41;5025755;28;9698;-72
2023/01/14 12:46:31;;;;;;;;;;;;;;;25.95;41.63;94080.84;5032555;28;8144;-72
2023/01/14 12:48:59;;;;;;;;;;;;;;;25.93;41.15;94085.38;5032245;28;7236;-73
2023/01/14 12:51:34;;;;;;;;;;;;;;;25.93;41.61;94091.63;5030231;28;7026;-72
2023/01/14 12:54:05;;;;;;;;;;;;;;;25.94;40.65;94089.63;5029882;28;7326;-73
2023/01/14 12:56:55;;;;;;;;;;;;;;;25.94;41.33;94081.34;5062735;28;12482;-72
2023/01/14 12:59:23;;;;;;;;;;;;;;;25.95;40.47;94080.84;5029739;28;100102;-72
2023/01/14 13:01:56;;;;;;;;;;;;;;;25.94;41.18;94067.59;5042018;28;84707;-71
2023/01/14 13:04:28;;;;;;;;;;;;;;;25.94;40.40;94060.06;5045757;28;8919;-71
2023/01/14 13:07:03;;;;;;;;;;;;;;;25.94;40.73;94054.56;5047961;28;6998;-72
2023/01/14 13:10:06;;;;;;;;;;;;;;;25.93;40.40;94058.56;5038364;28;13083;-70
2023/01/14 13:12:48;;;;;;;;;;;;;;;25.92;41.07;94040.56;5030766;28;19859;-71
2023/01/14 13:15:52;;;;;;;;;;;;;;;25.91;40.44;94039.06;5016047;28;8995;-71
2023/01/14 13:18:45;;;;;;;;;;;;;;;25.92;40.63;94040.56;5020493;28;7270;-72
2023/01/14 13:21:57;;;;;;;;;;;;;;;25.89;41.52;94036.06;5020312;28;9415;-72
2023/01/14 13:24:51;;;;;;;;;;;;;;;25.92;41.38;94031.53;5010751;28;7055;-71
2023/01/14 13:27:38;;;;;;;;;;;;;;;25.92;41.20;94024.03;5003448;28;8709;-72
2023/01/14 13:30:29;;;;;;;;;;;;;;;25.94;41.82;94032.50;4993699;28;7039;-72
2023/01/14 13:33:26;;;;;;;;;;;;;;;25.94;41.58;94012.47;4998962;28;7259;-70
2023/01/14 13:36:28;;;;;;;;;;;;;;;25.93;41.25;94011.72;5000021;28;7091;-71
2023/01/14 13:39:01;;;;;;;;;;;;;;;25.91;41.13;94006.00;4975189;28;7777;-71
2023/01/14 13:42:22;;;;;;;;;;;;;;;25.91;41.61;93989.47;4982640;28;7039;-71
2023/01/14 13:45:02;;;;;;;;;;;;;;;25.90;41.25;93998.97;4941465;28;8253;-71
2023/01/14 13:48:10;;;;;;;;;;;;;;;25.92;41.67;93999.22;4930789;29;9071;-72
2023/01/14 13:50:37;;;;;;;;;;;;;;;25.90;41.05;94003.75;4913089;29;7361;-71
2023/01/14 13:53:27;;;;;;;;;;;;;;;25.92;41.28;94023.28;4875854;29;9181;-72
2023/01/14 13:55:58;;;;;;;;;;;;;;;25.92;41.47;94009.50;4878781;29;9112;-72
2023/01/14 13:58:49;;;;;;;;;;;;;;;25.92;41.31;94013.00;4872774;29;12683;-72
2023/01/14 14:01:30;;;;;;;;;;;;;;;25.91;41.88;94035.53;4902980;29;9200;-72
2023/01/14 14:04:11;;;;;;;;;;;;;;;25.92;41.71;94035.03;4897554;29;12591;-72
2023/01/14 14:06:42;;;;;;;;;;;;;;;25.92;42.27;94032.28;4913750;29;8072;-72
2023/01/14 14:15:09;;;;;;;;;;;;;;;22.99;49.13;94065.34;5056653;27;1672661;-58
2023/01/14 14:17:43;;;;;;;;;;;;;;;23.48;47.74;94066.50;5100407;28;9326;-58
2023/01/14 14:20:18;;;;;;;;;;;;;;;23.83;47.15;94060.38;5106290;28;7030;-58
2023/01/14 14:44:21;;;;;;;;;;;;;;;22.79;53.05;94013.53;5092011;27;1313586;-66
2023/01/14 14:46:47;;;;;;;;;;;;;;;23.23;50.99;93998.94;5074508;28;7572;-66
2023/01/14 14:49:16;;;;;;;;;;;;;;;23.54;50.58;93984.88;5060870;28;12755;-69
2023/01/14 14:51:51;;;;;;;;;;;;;;;23.96;49.63;93981.66;5056316;28;12721;-66
2023/01/14 14:54:30;;;;;;;;;;;;;;;24.29;48.15;93974.44;5036362;28;9006;-67
2023/01/14 14:57:01;;;;;;;;;;;;;;;24.53;47.49;93958.72;5040705;28;7044;-67